Empalme San Vicente, Argentina
Current Conditions -  °F | °C
As of 5:00 AM on Thursday 23 Oct 2014 (Local Time) from SAEZ Reporting Station
Clear Clear  
Wind Chill: 66°   Ceiling: Unl
Heat Index: 66°   Visibility: 6mi
Dew Point: 55°   Wind: 2mph
Humidity: 68%   Direction: 360°N
Pressure: 29.97"   Gusts: NA
Location:  34.99°S, 58.38°W
Report Text: SAEZ 230800Z 36002KT CAVOK 19/13 Q1015
Loading
Personal Weather Stations






























Interactive Weather Map
Tropical Storm Tracking
New forecast layout! Learn more

10-Day Weather Forecast

Advertisements
Track Severe Weather on mobile